Time;durP1;ratioP1;P1;durP2;ratioP2;P2;SDS_P1;SDS_P2;PMS_P1;PMS_P2;Temp;Humidity;BMP_temperature;BMP_pressure;BME280_temperature;BME280_humidity;BME280_pressure;Samples;Min_cycle;Max_cycle;Signal;HPM_P1;HPM_P2
2022/04/13 00:02:56;;;;;;;11.87;7.40;;;4.10;99.90;;;;;;8297409;28;20213;-65
2022/04/13 00:06:57;;;;;;;10.43;6.97;;;4.00;99.90;;;;;;8286230;28;20326;-66
2022/04/13 00:11:00;;;;;;;13.27;7.80;;;3.80;1.00;;;;;;8290085;28;20234;-66
2022/04/13 00:15:02;;;;;;;12.57;8.40;;;3.80;99.90;;;;;;8285868;28;20207;-65
2022/04/13 00:19:03;;;;;;;10.77;7.33;;;3.80;99.90;;;;;;8283329;28;20229;-66
2022/04/13 00:23:04;;;;;;;10.07;7.53;;;3.70;99.90;;;;;;8282830;28;20212;-66
2022/04/13 00:27:05;;;;;;;12.33;7.07;;;3.50;99.90;;;;;;8283660;28;20258;-66
2022/04/13 00:31:06;;;;;;;11.47;6.97;;;3.40;1.00;;;;;;8283158;28;20215;-66
2022/04/13 00:35:07;;;;;;;12.27;7.40;;;3.30;1.00;;;;;;8285586;28;20213;-66
2022/04/13 00:39:08;;;;;;;12.20;8.13;;;3.20;81.30;;;;;;8301443;28;20250;-66
2022/04/13 00:43:09;;;;;;;11.63;7.67;;;3.10;99.90;;;;;;8286848;28;20501;-68
2022/04/13 00:47:09;;;;;;;14.23;8.57;;;3.00;99.90;;;;;;8283169;28;20230;-66
2022/04/13 00:51:10;;;;;;;15.03;8.33;;;3.00;99.90;;;;;;8300683;28;20215;-66
2022/04/13 00:55:13;;;;;;;13.50;8.23;;;2.90;99.90;;;;;;8288316;28;20203;-66
2022/04/13 00:59:15;;;;;;;11.47;8.10;;;2.90;99.90;;;;;;8282058;28;20264;-66
2022/04/13 01:03:24;;;;;;;11.50;8.77;;;2.80;99.90;;;;;;8295973;28;20216;-66
2022/04/13 01:07:25;;;;;;;16.53;9.07;;;2.70;1.00;;;;;;8285228;28;20290;-66
2022/04/13 01:11:27;;;;;;;13.03;9.37;;;2.70;99.90;;;;;;8283754;28;20210;-66
2022/04/13 01:15:28;;;;;;;14.97;9.10;;;2.70;99.90;;;;;;8295350;28;20515;-66
2022/04/13 01:19:31;;;;;;;13.20;8.67;;;2.80;99.90;;;;;;8281817;28;20203;-65
2022/04/13 01:23:32;;;;;;;14.37;9.00;;;2.70;1.00;;;;;;8283832;28;20256;-63
2022/04/13 01:27:33;;;;;;;14.03;9.33;;;2.70;1.00;;;;;;8277326;28;20234;-62
2022/04/13 01:31:34;;;;;;;16.07;9.97;;;2.90;1.00;;;;;;8297146;28;20280;-63
2022/04/13 01:35:35;;;;;;;14.97;9.23;;;3.00;99.90;;;;;;8281047;28;20210;-66
2022/04/13 01:39:36;;;;;;;17.87;10.33;;;3.20;1.00;;;;;;8273298;28;20232;-66
2022/04/13 01:43:36;;;;;;;13.67;9.57;;;3.20;99.90;;;;;;8278363;28;20234;-63
2022/04/13 01:47:37;;;;;;;15.33;10.23;;;3.30;17.40;;;;;;8285665;28;20223;-66
2022/04/13 01:51:38;;;;;;;18.60;10.03;;;3.30;1.00;;;;;;8280461;28;20195;-64
2022/04/13 01:55:39;;;;;;;14.07;9.17;;;3.20;1.00;;;;;;8281405;28;20213;-63
2022/04/13 01:59:40;;;;;;;15.40;9.47;;;3.20;1.00;;;;;;8280427;28;20233;-65
2022/04/13 02:03:40;;;;;;;15.17;9.83;;;3.10;44.90;;;;;;8280460;28;20612;-65
2022/04/13 02:07:41;;;;;;;15.30;9.87;;;2.90;13.20;;;;;;8278378;28;20214;-65
2022/04/13 02:11:43;;;;;;;13.87;9.30;;;2.80;99.90;;;;;;8280774;28;20199;-63
2022/04/13 02:15:44;;;;;;;16.70;9.37;;;2.70;99.90;;;;;;8281234;28;20307;-65
2022/04/13 02:19:44;;;;;;;14.63;8.93;;;2.60;99.90;;;;;;8279773;28;20207;-65
2022/04/13 02:23:46;;;;;;;15.47;9.67;;;2.50;1.00;;;;;;8281129;28;20203;-65
2022/04/13 02:27:47;;;;;;;17.93;9.87;;;2.40;35.50;;;;;;8285751;28;20309;-63
2022/04/13 02:31:48;;;;;;;17.57;9.97;;;2.30;99.90;;;;;;8285164;28;20213;-65
2022/04/13 02:35:49;;;;;;;14.53;9.87;;;2.20;99.90;;;;;;8284528;28;20314;-66
2022/04/13 02:39:49;;;;;;;13.43;9.10;;;2.10;99.90;;;;;;8279176;28;20207;-65
2022/04/13 02:43:50;;;;;;;14.97;9.10;;;2.00;1.00;;;;;;8282703;28;20268;-66
2022/04/13 02:47:51;;;;;;;12.53;8.43;;;1.90;66.60;;;;;;8282590;28;20753;-66
2022/04/13 02:51:52;;;;;;;14.87;9.87;;;1.80;99.90;;;;;;8286021;28;20211;-66
2022/04/13 02:55:53;;;;;;;14.57;9.87;;;1.70;99.90;;;;;;8282528;28;20194;-67
2022/04/13 02:59:54;;;;;;;16.57;10.00;;;1.60;94.80;;;;;;8291075;28;20238;-66
2022/04/13 03:03:55;;;;;;;16.87;10.03;;;1.50;99.90;;;;;;8287367;28;20210;-65
2022/04/13 03:07:56;;;;;;;17.93;10.40;;;1.50;1.00;;;;;;8285413;28;20223;-67
2022/04/13 03:11:57;;;;;;;12.53;9.67;;;1.40;99.90;;;;;;8286021;28;20207;-66
2022/04/13 03:15:58;;;;;;;17.40;11.10;;;1.30;99.90;;;;;;8286210;28;20203;-65
2022/04/13 03:19:59;;;;;;;18.63;11.43;;;1.30;99.90;;;;;;8287010;28;20208;-65
2022/04/13 03:24:00;;;;;;;18.67;11.40;;;1.30;99.90;;;;;;8283217;28;20230;-65
2022/04/13 03:28:00;;;;;;;18.83;11.07;;;1.30;99.90;;;;;;8288872;28;20285;-66
2022/04/13 03:32:01;;;;;;;19.40;11.77;;;1.20;99.90;;;;;;8288887;28;20237;-66
2022/04/13 03:36:02;;;;;;;17.17;10.30;;;1.20;99.90;;;;;;8285294;28;20214;-66
2022/04/13 03:40:03;;;;;;;17.03;11.47;;;1.10;99.90;;;;;;8284609;28;20516;-65
2022/04/13 03:44:04;;;;;;;17.00;12.20;;;1.10;99.90;;;;;;8286327;28;20294;-66
2022/04/13 03:48:05;;;;;;;22.03;12.60;;;1.10;99.90;;;;;;8282980;28;20704;-65
2022/04/13 03:52:06;;;;;;;21.73;12.40;;;1.20;1.00;;;;;;8278696;28;20225;-65
2022/04/13 03:56:07;;;;;;;19.27;11.63;;;1.20;1.00;;;;;;8282995;28;20237;-65
2022/04/13 04:00:09;;;;;;;17.20;11.17;;;1.20;1.00;;;;;;8284938;28;20207;-65
2022/04/13 04:04:10;;;;;;;20.80;11.43;;;1.20;99.90;;;;;;8281549;28;20203;-65
2022/04/13 04:08:11;;;;;;;21.67;12.83;;;1.10;99.90;;;;;;8283430;28;20231;-65
2022/04/13 04:12:12;;;;;;;18.70;12.00;;;1.10;99.90;;;;;;8285539;28;20578;-65
2022/04/13 04:16:12;;;;;;;19.13;12.87;;;1.10;1.00;;;;;;8287960;28;20264;-67
2022/04/13 04:20:13;;;;;;;21.20;14.03;;;1.20;1.00;;;;;;8286077;28;20203;-65
2022/04/13 04:24:14;;;;;;;27.57;15.03;;;1.30;1.00;;;;;;8287430;28;20214;-66
2022/04/13 04:28:15;;;;;;;26.03;16.03;;;1.50;1.00;;;;;;8284804;28;20262;-66
2022/04/13 04:32:16;;;;;;;23.63;14.57;;;1.70;99.90;;;;;;8287397;28;20250;-66
2022/04/13 04:36:17;;;;;;;23.10;15.37;;;2.10;99.90;;;;;;8276147;28;20227;-66
2022/04/13 04:40:17;;;;;;;25.13;15.70;;;2.50;1.00;;;;;;8287378;28;20341;-66
2022/04/13 04:44:18;;;;;;;22.50;16.17;;;2.90;1.00;;;;;;8280036;28;20207;-66
2022/04/13 04:48:19;;;;;;;23.50;15.80;;;3.30;1.00;;;;;;8280594;28;20222;-66
2022/04/13 04:52:20;;;;;;;23.63;14.80;;;3.60;99.90;;;;;;8277101;28;20212;-66
2022/04/13 04:56:21;;;;;;;22.80;14.93;;;3.70;99.90;;;;;;8278956;28;20215;-66
2022/04/13 05:00:22;;;;;;;22.87;15.23;;;3.80;99.90;;;;;;8281834;28;20251;-67
2022/04/13 05:04:22;;;;;;;22.97;16.27;;;3.90;1.00;;;;;;8282867;28;20214;-66
2022/04/13 05:08:23;;;;;;;24.03;16.63;;;4.00;99.90;;;;;;8280176;28;20207;-67
2022/04/13 05:12:25;;;;;;;20.43;13.67;;;4.20;52.10;;;;;;8290671;28;20211;-66
2022/04/13 05:16:25;;;;;;;19.10;14.17;;;4.30;1.00;;;;;;8282244;28;20223;-67
2022/04/13 05:20:26;;;;;;;23.93;14.33;;;4.50;99.90;;;;;;8293682;28;20265;-67
2022/04/13 05:24:27;;;;;;;26.13;15.73;;;4.80;99.90;;;;;;8301641;28;20209;-67
2022/04/13 05:28:29;;;;;;;21.23;15.03;;;5.10;62.80;;;;;;8293843;28;20274;-66
2022/04/13 05:32:31;;;;;;;22.90;14.73;;;5.40;1.00;;;;;;8301222;28;20218;-67
2022/04/13 05:36:31;;;;;;;24.40;16.30;;;5.60;99.90;;;;;;8292828;28;20220;-65
2022/04/13 05:40:32;;;;;;;23.67;15.20;;;5.90;1.00;;;;;;8280453;28;20218;-67
2022/04/13 05:44:33;;;;;;;24.30;15.03;;;6.00;1.00;;;;;;8284978;28;20210;-67
2022/04/13 05:48:34;;;;;;;24.77;15.07;;;6.30;1.00;;;;;;8286640;28;20212;-67
2022/04/13 05:52:35;;;;;;;21.43;15.30;;;6.40;99.90;;;;;;8278705;28;20211;-65
2022/04/13 05:56:36;;;;;;;22.00;15.37;;;6.60;99.90;;;;;;8281421;28;20309;-68
2022/04/13 06:00:39;;;;;;;24.23;15.90;;;6.70;99.90;;;;;;8278750;28;20207;-65
2022/04/13 06:04:40;;;;;;;24.57;15.67;;;6.80;99.90;;;;;;8288184;28;20202;-69
2022/04/13 06:08:40;;;;;;;22.90;14.73;;;7.00;99.90;;;;;;8283661;28;20249;-67
2022/04/13 06:12:41;;;;;;;23.70;15.27;;;7.20;82.30;;;;;;8283138;28;20206;-66
2022/04/13 06:16:42;;;;;;;22.20;14.87;;;7.30;20.80;;;;;;8293199;28;20218;-68
2022/04/13 06:20:43;;;;;;;25.33;15.97;;;7.50;1.00;;;;;;8294020;28;20225;-66
2022/04/13 06:24:44;;;;;;;25.30;16.43;;;7.60;1.00;;;;;;8298845;28;20203;-68
2022/04/13 06:28:44;;;;;;;25.57;15.20;;;7.90;1.00;;;;;;8290135;28;20206;-66
2022/04/13 06:32:46;;;;;;;21.07;14.67;;;8.00;99.90;;;;;;8284560;28;20207;-66
2022/04/13 06:36:46;;;;;;;25.37;15.53;;;8.10;99.90;;;;;;8282772;28;20218;-68
2022/04/13 06:40:47;;;;;;;22.40;14.83;;;8.20;99.90;;;;;;8282073;28;20305;-69
2022/04/13 06:44:50;;;;;;;21.50;13.80;;;8.30;99.90;;;;;;8291018;28;20285;-65
2022/04/13 06:48:50;;;;;;;22.60;14.07;;;8.40;99.90;;;;;;8286055;28;20199;-70
2022/04/13 06:52:51;;;;;;;22.70;15.10;;;8.60;99.90;;;;;;8281450;28;20215;-66
2022/04/13 06:56:52;;;;;;;20.17;13.90;;;8.80;99.90;;;;;;8281780;28;20260;-65
2022/04/13 07:00:53;;;;;;;22.50;13.57;;;9.10;99.90;;;;;;8279213;28;20206;-66
2022/04/13 07:04:53;;;;;;;18.97;12.40;;;9.30;40.40;;;;;;8282730;28;20250;-66
2022/04/13 07:08:54;;;;;;;20.67;13.93;;;9.50;1.00;;;;;;8281253;28;20294;-68
2022/04/13 07:12:55;;;;;;;22.47;14.03;;;9.70;1.00;;;;;;8282714;28;20671;-65
2022/04/13 07:16:56;;;;;;;21.13;12.20;;;9.90;1.00;;;;;;8284344;28;20218;-66
2022/04/13 07:20:57;;;;;;;22.13;14.40;;;10.20;1.00;;;;;;8287638;28;20461;-66
2022/04/13 07:24:57;;;;;;;17.30;13.07;;;10.50;1.00;;;;;;8293117;28;20203;-69
2022/04/13 07:28:59;;;;;;;20.67;13.73;;;10.80;1.00;;;;;;8284278;28;20284;-68
2022/04/13 07:33:01;;;;;;;20.40;13.43;;;11.00;1.00;;;;;;8281845;28;20209;-67
2022/04/13 07:37:03;;;;;;;18.80;13.70;;;11.30;1.00;;;;;;8296146;28;20221;-66
2022/04/13 07:41:04;;;;;;;22.23;13.40;;;11.50;1.00;;;;;;8296355;28;20207;-66
2022/04/13 07:45:05;;;;;;;19.53;13.37;;;11.80;99.90;;;;;;8283761;28;20213;-67
2022/04/13 07:49:08;;;;;;;25.47;16.87;;;12.10;99.90;;;;;;8279956;28;20253;-68
2022/04/13 07:53:11;;;;;;;23.13;14.20;;;12.40;99.90;;;;;;8312929;28;20253;-67
2022/04/13 07:57:13;;;;;;;20.03;13.27;;;12.80;99.90;;;;;;8287737;28;20254;-68
2022/04/13 08:01:14;;;;;;;16.67;12.40;;;13.00;99.90;;;;;;8279862;28;20241;-65
2022/04/13 08:05:15;;;;;;;20.10;13.03;;;13.30;99.90;;;;;;8287557;28;20200;-68
2022/04/13 08:09:16;;;;;;;20.00;12.30;;;13.60;99.90;;;;;;8285208;28;20303;-68
2022/04/13 08:13:17;;;;;;;21.00;12.43;;;13.80;99.90;;;;;;8293761;28;20210;-69
2022/04/13 08:17:17;;;;;;;19.27;12.20;;;14.00;99.90;;;;;;8285675;28;20230;-66
2022/04/13 08:21:18;;;;;;;16.80;12.20;;;14.20;99.90;;;;;;8292925;28;20231;-68
2022/04/13 08:25:19;;;;;;;24.60;12.97;;;14.40;99.90;;;;;;8291680;28;20210;-66
2022/04/13 08:29:20;;;;;;;19.27;12.57;;;14.70;99.90;;;;;;8290472;28;20229;-67
2022/04/13 08:33:21;;;;;;;20.90;11.60;;;14.90;99.90;;;;;;8284467;28;20256;-68
2022/04/13 08:37:24;;;;;;;21.60;12.10;;;15.20;99.90;;;;;;8291793;28;20218;-67
2022/04/13 08:41:48;;;;;;;17.83;11.60;;;15.20;99.90;;;;;;8292376;28;20252;-67
2022/04/13 08:46:01;;;;;;;16.63;11.57;;;15.30;99.90;;;;;;8287968;28;20203;-67
2022/04/13 08:50:04;;;;;;;19.13;12.07;;;15.50;99.90;;;;;;8286598;28;20203;-70
2022/04/13 08:54:22;;;;;;;17.70;12.63;;;15.50;99.90;;;;;;8286944;28;20207;-68
2022/04/13 08:58:46;;;;;;;16.67;11.73;;;15.60;99.90;;;;;;8277049;28;20222;-67
2022/04/13 09:02:50;;;;;;;19.73;11.97;;;15.90;99.90;;;;;;8277631;28;20264;-69
2022/04/13 09:06:51;;;;;;;19.17;11.27;;;16.10;99.90;;;;;;8281855;28;20217;-67
2022/04/13 09:10:53;;;;;;;17.77;11.03;;;16.10;99.90;;;;;;8275226;28;20199;-66
2022/04/13 09:14:56;;;;;;;18.60;12.07;;;16.20;99.90;;;;;;8281024;28;20238;-68
2022/04/13 09:18:57;;;;;;;17.33;12.30;;;16.40;99.90;;;;;;8288897;28;20242;-68
2022/04/13 09:22:59;;;;;;;18.77;11.43;;;16.50;99.90;;;;;;8286699;28;20222;-70
2022/04/13 09:27:00;;;;;;;22.87;12.00;;;16.30;99.90;;;;;;8276251;28;20211;-67
2022/04/13 09:31:01;;;;;;;18.93;11.27;;;16.30;99.90;;;;;;8284270;28;20210;-71
2022/04/13 09:35:03;;;;;;;16.47;11.10;;;16.30;99.90;;;;;;8297321;28;20210;-67
2022/04/13 09:39:04;;;;;;;17.93;12.13;;;16.40;99.90;;;;;;8279489;28;20712;-67
2022/04/13 09:43:13;;;;;;;16.93;11.10;;;16.50;99.90;;;;;;8289342;28;20293;-68
2022/04/13 09:47:14;;;;;;;16.67;11.37;;;16.80;99.90;;;;;;8291510;28;20294;-69
2022/04/13 09:51:15;;;;;;;19.83;12.37;;;17.10;99.90;;;;;;8288358;28;20730;-69
2022/04/13 09:55:16;;;;;;;22.13;12.47;;;17.40;99.90;;;;;;8291675;28;20359;-67
2022/04/13 09:59:27;;;;;;;17.87;11.80;;;17.60;99.90;;;;;;8291577;28;20310;-66
2022/04/13 10:03:28;;;;;;;17.23;11.60;;;17.80;99.90;;;;;;8296695;28;20203;-70
2022/04/13 10:07:28;;;;;;;18.37;13.27;;;18.00;99.90;;;;;;8301391;28;20205;-68
2022/04/13 10:11:29;;;;;;;17.27;11.10;;;18.20;99.90;;;;;;8289048;28;20450;-65
2022/04/13 10:15:30;;;;;;;18.07;10.80;;;18.40;99.90;;;;;;8294060;28;20260;-66
2022/04/13 10:19:31;;;;;;;18.10;12.43;;;18.50;91.40;;;;;;8293855;28;20565;-66
2022/04/13 10:23:41;;;;;;;19.17;13.03;;;18.60;99.90;;;;;;8287663;28;20202;-67
2022/04/13 10:27:55;;;;;;;18.27;11.30;;;18.60;93.90;;;;;;8283611;28;20239;-67
2022/04/13 10:32:10;;;;;;;18.03;11.17;;;18.70;98.20;;;;;;8290224;28;20314;-67
2022/04/13 10:36:11;;;;;;;19.73;12.50;;;18.90;66.70;;;;;;8287779;28;20223;-69
2022/04/13 10:40:11;;;;;;;17.93;11.57;;;19.00;81.40;;;;;;8295693;28;20222;-67
2022/04/13 10:44:12;;;;;;;19.27;11.70;;;19.10;76.20;;;;;;8294876;28;20269;-66
2022/04/13 10:48:21;;;;;;;17.63;10.97;;;19.20;50.40;;;;;;8289021;28;20233;-66
2022/04/13 10:52:33;;;;;;;16.53;10.97;;;19.30;65.10;;;;;;8286194;28;20263;-68
2022/04/13 10:56:37;;;;;;;19.67;12.50;;;19.40;64.80;;;;;;8291959;28;20268;-66
2022/04/13 11:00:44;;;;;;;18.30;11.93;;;19.50;94.00;;;;;;8282287;28;20214;-67
2022/04/13 11:04:45;;;;;;;15.47;10.27;;;19.70;95.30;;;;;;8292276;28;20203;-66
2022/04/13 11:08:57;;;;;;;14.27;9.53;;;19.80;75.10;;;;;;8282445;28;20211;-68
2022/04/13 11:12:59;;;;;;;14.43;10.07;;;19.80;37.50;;;;;;8295969;28;20206;-67
2022/04/13 11:17:06;;;;;;;15.57;10.40;;;20.00;37.10;;;;;;8289349;28;20210;-66
2022/04/13 11:21:10;;;;;;;12.70;8.70;;;20.00;27.50;;;;;;8286219;28;20639;-66
2022/04/13 11:25:11;;;;;;;13.70;9.13;;;20.10;3.20;;;;;;8286070;28;20215;-67
2022/04/13 11:29:16;;;;;;;16.20;9.63;;;20.20;1.00;;;;;;8287008;28;20217;-67
2022/04/13 11:33:17;;;;;;;15.53;10.80;;;20.20;1.00;;;;;;8281302;28;20210;-69
2022/04/13 11:37:25;;;;;;;23.93;14.93;;;20.40;24.00;;;;;;8285591;28;20222;-66
2022/04/13 11:41:26;;;;;;;20.63;14.57;;;20.50;31.20;;;;;;8278687;28;20301;-69
2022/04/13 11:45:29;;;;;;;23.10;14.73;;;20.50;38.90;;;;;;8284286;28;20214;-68
2022/04/13 11:49:33;;;;;;;24.67;13.50;;;20.50;37.90;;;;;;8280810;28;20281;-67
2022/04/13 11:53:53;;;;;;;21.33;12.60;;;20.40;45.20;;;;;;8275788;28;20248;-70
2022/04/13 11:57:59;;;;;;;20.40;14.03;;;20.30;33.60;;;;;;8279269;28;20369;-66
2022/04/13 12:02:06;;;;;;;23.20;16.17;;;20.30;47.70;;;;;;8286837;28;20253;-69
2022/04/13 12:06:18;;;;;;;20.87;13.73;;;20.50;52.60;;;;;;8286662;28;20198;-65
2022/04/13 12:10:19;;;;;;;20.27;13.70;;;20.60;44.50;;;;;;8290638;28;20199;-68
2022/04/13 12:14:27;;;;;;;29.23;14.90;;;20.60;33.10;;;;;;8291074;28;20207;-65
2022/04/13 12:18:29;;;;;;;20.97;13.03;;;20.60;40.50;;;;;;8280212;28;20243;-65
2022/04/13 12:22:34;;;;;;;21.57;13.60;;;20.70;44.20;;;;;;8287645;28;20455;-65
2022/04/13 12:26:37;;;;;;;22.67;12.77;;;20.70;40.80;;;;;;8286204;28;20206;-68
2022/04/13 12:30:39;;;;;;;18.17;12.63;;;20.70;36.00;;;;;;8293040;28;20206;-67
2022/04/13 12:34:40;;;;;;;20.10;13.20;;;20.80;35.90;;;;;;8289076;28;20234;-66
2022/04/13 12:38:46;;;;;;;17.43;11.67;;;20.80;29.30;;;;;;8297364;28;20289;-66
2022/04/13 12:42:47;;;;;;;19.33;12.53;;;20.80;30.30;;;;;;8293439;28;20207;-65
2022/04/13 12:46:48;;;;;;;21.63;12.07;;;20.90;25.10;;;;;;8291271;28;20214;-65
2022/04/13 12:51:03;;;;;;;20.17;11.90;;;21.00;33.30;;;;;;8283360;28;20301;-69
2022/04/13 12:55:05;;;;;;;20.10;14.13;;;21.00;29.00;;;;;;8290120;28;20207;-66
2022/04/13 12:59:06;;;;;;;18.43;11.70;;;20.90;19.60;;;;;;8276285;28;20265;-68
2022/04/13 13:03:07;;;;;;;16.47;11.57;;;20.80;14.00;;;;;;8289902;28;20517;-67
2022/04/13 13:07:08;;;;;;;18.23;11.30;;;20.90;18.70;;;;;;8290945;28;20497;-69
2022/04/13 13:11:10;;;;;;;18.10;12.43;;;21.00;11.40;;;;;;8287040;28;20213;-68
2022/04/13 13:15:11;;;;;;;17.37;12.13;;;21.00;9.40;;;;;;8297880;28;20215;-65
2022/04/13 13:19:29;;;;;;;14.23;10.57;;;20.80;8.20;;;;;;8280441;28;20233;-65
2022/04/13 13:23:31;;;;;;;18.30;11.20;;;20.80;7.40;;;;;;8291258;28;20207;-68
2022/04/13 13:27:41;;;;;;;14.70;9.87;;;20.90;12.60;;;;;;8278721;28;20538;-66
2022/04/13 13:31:42;;;;;;;18.37;11.83;;;21.00;1.50;;;;;;8286626;28;20440;-65
2022/04/13 13:35:42;;;;;;;16.90;10.57;;;21.00;5.50;;;;;;8279807;28;20241;-66
2022/04/13 13:39:43;;;;;;;14.43;10.70;;;21.00;2.30;;;;;;8283384;28;20218;-66
2022/04/13 13:43:44;;;;;;;17.43;11.00;;;20.90;1.00;;;;;;8287352;28;20214;-66
2022/04/13 13:47:45;;;;;;;15.47;11.23;;;20.90;1.00;;;;;;8280858;28;20209;-65
2022/04/13 13:51:48;;;;;;;18.67;11.37;;;20.90;1.00;;;;;;8284110;28;20667;-66
2022/04/13 13:55:49;;;;;;;17.33;11.10;;;20.90;1.00;;;;;;8293798;28;20207;-65
2022/04/13 13:59:50;;;;;;;14.63;11.37;;;20.80;1.00;;;;;;8282722;28;20309;-70
2022/04/13 14:03:51;;;;;;;17.53;10.60;;;20.80;1.00;;;;;;8281811;28;20206;-68
2022/04/13 14:07:54;;;;;;;18.63;10.47;;;20.80;1.00;;;;;;8283067;28;20234;-66
2022/04/13 14:11:56;;;;;;;15.00;10.63;;;20.90;1.00;;;;;;8287634;28;20764;-66
2022/04/13 14:15:58;;;;;;;17.20;10.57;;;20.90;1.00;;;;;;8280894;28;20215;-66
2022/04/13 14:19:59;;;;;;;15.83;11.33;;;20.90;1.00;;;;;;8284014;28;20222;-66
2022/04/13 14:24:00;;;;;;;17.07;11.87;;;21.00;3.30;;;;;;8291007;28;20206;-65
2022/04/13 14:28:02;;;;;;;15.70;11.60;;;21.00;1.00;;;;;;8286845;28;20262;-66
2022/04/13 14:32:03;;;;;;;13.30;10.17;;;20.90;1.00;;;;;;8284807;28;20246;-70
2022/04/13 14:36:04;;;;;;;15.20;10.40;;;20.90;1.00;;;;;;8287461;28;20257;-66
2022/04/13 14:40:07;;;;;;;14.60;10.40;;;20.90;1.00;;;;;;8285803;28;20246;-69
2022/04/13 14:44:08;;;;;;;20.90;12.43;;;20.90;1.00;;;;;;8280057;28;20215;-69
2022/04/13 14:48:09;;;;;;;15.37;10.73;;;20.90;1.00;;;;;;8291729;28;20237;-66
2022/04/13 14:52:10;;;;;;;17.93;10.73;;;20.80;1.00;;;;;;8292455;28;20239;-66
2022/04/13 14:56:11;;;;;;;16.07;10.50;;;20.80;1.00;;;;;;8281720;28;20207;-69
2022/04/13 15:00:14;;;;;;;16.73;11.23;;;20.90;3.50;;;;;;8295767;28;20214;-68
2022/04/13 15:04:15;;;;;;;16.93;11.10;;;20.90;14.50;;;;;;8282236;28;20218;-69
2022/04/13 15:08:16;;;;;;;14.80;10.63;;;20.80;5.50;;;;;;8290162;28;20317;-67
2022/04/13 15:12:16;;;;;;;18.93;11.17;;;20.80;1.40;;;;;;8295072;28;20218;-70
2022/04/13 15:16:17;;;;;;;21.40;11.80;;;20.80;1.00;;;;;;8297491;28;20264;-69
2022/04/13 15:20:18;;;;;;;16.97;11.47;;;20.60;1.00;;;;;;8289705;28;20239;-67
2022/04/13 15:24:19;;;;;;;18.50;11.27;;;20.60;1.00;;;;;;8282494;28;20215;-67
2022/04/13 15:28:21;;;;;;;20.70;11.50;;;20.60;1.00;;;;;;8281299;28;20246;-67
2022/04/13 15:32:22;;;;;;;16.37;10.30;;;20.50;1.00;;;;;;8280015;28;20294;-67
2022/04/13 15:36:23;;;;;;;14.27;10.47;;;20.50;1.00;;;;;;8282052;28;20219;-68
2022/04/13 15:40:24;;;;;;;16.37;10.53;;;20.40;1.90;;;;;;8279910;28;20210;-67
2022/04/13 15:44:25;;;;;;;14.43;9.97;;;20.40;3.40;;;;;;8279929;28;20233;-67
2022/04/13 15:48:26;;;;;;;15.80;10.63;;;20.30;3.40;;;;;;8277028;28;20526;-68
2022/04/13 15:52:27;;;;;;;16.00;10.03;;;20.20;7.20;;;;;;8285602;28;20203;-69
2022/04/13 15:56:27;;;;;;;15.83;10.33;;;20.20;15.40;;;;;;8297489;28;20202;-68
2022/04/13 16:00:29;;;;;;;12.60;9.67;;;20.10;10.60;;;;;;8283532;28;20278;-66
2022/04/13 16:04:30;;;;;;;19.10;10.77;;;20.00;6.20;;;;;;8284272;28;20286;-68
2022/04/13 16:08:31;;;;;;;14.90;9.73;;;19.90;6.60;;;;;;8295451;28;20222;-68
2022/04/13 16:12:31;;;;;;;15.80;9.87;;;19.80;10.90;;;;;;8276267;28;20198;-68
2022/04/13 16:16:32;;;;;;;13.57;8.93;;;19.70;11.60;;;;;;8286099;28;20199;-65
2022/04/13 16:20:34;;;;;;;14.30;9.70;;;19.70;15.70;;;;;;8285952;28;20203;-68
2022/04/13 16:24:35;;;;;;;15.40;10.17;;;19.60;15.60;;;;;;8281104;28;20234;-67
2022/04/13 16:28:36;;;;;;;18.10;10.70;;;19.40;17.50;;;;;;8292599;28;20548;-68
2022/04/13 16:32:37;;;;;;;15.05;9.70;;;19.30;24.30;;;;;;8281546;28;20435;-66
2022/04/13 16:36:38;;;;;;;15.23;8.63;;;19.30;44.20;;;;;;8274558;28;20234;-64
2022/04/13 16:40:39;;;;;;;13.83;9.03;;;19.30;71.40;;;;;;8290836;28;20222;-67
2022/04/13 16:44:40;;;;;;;13.30;7.80;;;19.20;55.10;;;;;;8265803;28;20200;-67
2022/04/13 16:48:40;;;;;;;13.00;7.93;;;19.20;64.60;;;;;;8272540;28;20222;-65
2022/04/13 16:52:41;;;;;;;16.77;10.77;;;19.00;68.70;;;;;;8274988;28;20234;-65
2022/04/13 16:56:42;;;;;;;15.90;9.93;;;18.90;81.50;;;;;;8280689;28;20236;-66
2022/04/13 17:00:43;;;;;;;16.50;8.50;;;18.70;91.40;;;;;;8290427;28;20294;-67
2022/04/13 17:04:44;;;;;;;15.40;9.73;;;18.60;99.90;;;;;;8281217;28;20195;-67
2022/04/13 17:08:45;;;;;;;13.17;9.13;;;18.40;99.90;;;;;;8282912;28;20229;-67
2022/04/13 17:12:46;;;;;;;14.83;9.37;;;18.20;99.90;;;;;;8279507;28;20202;-65
2022/04/13 17:16:47;;;;;;;15.03;9.57;;;18.10;99.90;;;;;;8278515;28;20334;-65
2022/04/13 17:20:48;;;;;;;14.30;9.60;;;18.00;99.90;;;;;;8293568;28;20215;-66
2022/04/13 17:24:49;;;;;;;14.50;8.97;;;17.80;99.90;;;;;;8281360;28;20206;-67
2022/04/13 17:28:52;;;;;;;15.23;10.03;;;17.60;99.90;;;;;;8299067;28;20229;-65
2022/04/13 17:32:53;;;;;;;15.20;9.37;;;17.30;99.90;;;;;;8286933;28;20222;-67
2022/04/13 17:36:54;;;;;;;15.33;9.23;;;17.10;99.90;;;;;;8280906;28;20218;-67
2022/04/13 17:40:55;;;;;;;13.57;9.03;;;16.90;99.90;;;;;;8278264;28;20218;-67
2022/04/13 17:44:56;;;;;;;11.53;8.30;;;16.70;99.90;;;;;;8275328;28;20209;-66
2022/04/13 17:48:57;;;;;;;14.83;10.37;;;16.60;99.90;;;;;;8273628;28;20671;-68
2022/04/13 17:52:58;;;;;;;13.00;9.10;;;16.40;99.90;;;;;;8278042;28;20207;-68
2022/04/13 17:56:59;;;;;;;14.63;10.53;;;16.20;99.90;;;;;;8274041;28;20652;-70
2022/04/13 18:01:02;;;;;;;16.97;10.23;;;15.90;99.90;;;;;;8280869;28;20207;-66
2022/04/13 18:05:04;;;;;;;15.60;10.00;;;15.60;99.90;;;;;;8276046;28;20266;-67
2022/04/13 18:09:05;;;;;;;17.17;11.00;;;15.30;99.90;;;;;;8295208;28;20226;-68
2022/04/13 18:13:06;;;;;;;19.10;12.40;;;15.10;99.90;;;;;;8281365;28;20282;-68
2022/04/13 18:17:07;;;;;;;19.47;10.97;;;14.90;99.90;;;;;;8282450;28;20207;-69
2022/04/13 18:21:08;;;;;;;16.77;10.53;;;14.80;99.90;;;;;;8277279;28;20218;-66
2022/04/13 18:25:09;;;;;;;20.57;10.10;;;14.60;99.90;;;;;;8283447;28;20211;-69
2022/04/13 18:29:10;;;;;;;12.97;9.20;;;14.50;99.90;;;;;;8284843;28;20234;-67
2022/04/13 18:33:11;;;;;;;15.90;9.33;;;14.30;99.90;;;;;;8289208;28;20202;-71
2022/04/13 18:37:12;;;;;;;12.93;9.33;;;14.10;99.90;;;;;;8300343;28;20210;-67
2022/04/13 18:41:13;;;;;;;14.10;9.00;;;14.00;99.90;;;;;;8291237;28;20210;-69
2022/04/13 18:45:15;;;;;;;18.47;9.37;;;13.80;99.90;;;;;;8289530;28;20207;-69
2022/04/13 18:49:16;;;;;;;16.23;9.00;;;13.60;99.90;;;;;;8284874;28;20226;-67
2022/04/13 18:53:17;;;;;;;17.63;9.50;;;13.40;99.90;;;;;;8274971;28;20241;-68
2022/04/13 18:57:17;;;;;;;14.47;9.20;;;13.20;99.90;;;;;;8283684;28;20218;-68
2022/04/13 19:01:18;;;;;;;16.23;10.60;;;13.00;99.90;;;;;;8283727;28;20214;-67
2022/04/13 19:05:19;;;;;;;13.43;9.00;;;12.80;99.90;;;;;;8285106;28;20265;-69
2022/04/13 19:09:21;;;;;;;13.43;8.90;;;12.70;1.00;;;;;;8285947;28;20234;-70
2022/04/13 19:13:21;;;;;;;12.40;8.10;;;12.50;1.00;;;;;;8292236;28;20206;-69
2022/04/13 19:17:22;;;;;;;12.20;8.47;;;12.30;1.00;;;;;;8285105;28;20218;-68
2022/04/13 19:21:23;;;;;;;13.90;8.90;;;12.20;1.00;;;;;;8281092;28;20242;-68
2022/04/13 19:25:25;;;;;;;14.50;8.37;;;12.10;1.00;;;;;;8283379;28;20272;-67
2022/04/13 19:29:26;;;;;;;15.67;10.03;;;11.90;1.00;;;;;;8283810;28;20230;-69
2022/04/13 19:33:27;;;;;;;16.73;9.10;;;11.80;1.00;;;;;;8281848;28;20215;-67
2022/04/13 19:37:28;;;;;;;13.43;8.77;;;11.80;1.00;;;;;;8282491;28;20348;-67
2022/04/13 19:41:30;;;;;;;15.60;9.83;;;11.70;1.00;;;;;;8282903;28;20221;-68
2022/04/13 19:45:31;;;;;;;17.07;10.10;;;11.60;1.00;;;;;;8294356;28;20326;-71
2022/04/13 19:49:33;;;;;;;18.67;10.53;;;11.60;35.50;;;;;;8282390;28;20239;-68
2022/04/13 19:53:34;;;;;;;14.90;9.00;;;11.50;82.80;;;;;;8281056;28;20213;-67
2022/04/13 19:57:35;;;;;;;16.70;9.20;;;11.40;99.90;;;;;;8281079;28;20213;-69
2022/04/13 20:01:36;;;;;;;15.97;8.77;;;11.40;99.90;;;;;;8276162;28;20207;-68
2022/04/13 20:05:37;;;;;;;12.77;8.27;;;11.30;99.90;;;;;;8277987;28;20221;-68
2022/04/13 20:09:38;;;;;;;13.23;8.03;;;11.10;99.90;;;;;;8279582;28;20227;-68
2022/04/13 20:13:39;;;;;;;14.57;8.53;;;10.90;99.90;;;;;;8280235;28;20271;-70
2022/04/13 20:17:40;;;;;;;16.23;9.50;;;10.80;99.90;;;;;;8279416;28;20211;-70
2022/04/13 20:21:41;;;;;;;14.67;9.73;;;10.70;99.90;;;;;;8280968;28;20326;-69
2022/04/13 20:25:42;;;;;;;16.47;9.93;;;10.60;1.00;;;;;;8272781;28;20311;-69
2022/04/13 20:29:43;;;;;;;32.50;18.30;;;10.50;1.00;;;;;;8280436;28;20227;-68
2022/04/13 20:33:44;;;;;;;35.57;19.83;;;10.60;1.00;;;;;;8279803;28;20313;-69
2022/04/13 20:37:59;;;;;;;39.57;21.80;;;10.50;1.00;;;;;;8283790;28;20214;-70
2022/04/13 20:42:02;;;;;;;47.37;21.80;;;10.50;1.00;;;;;;8276833;28;20250;-69